sensor_id;sensor_type;location;lat;lon;timestamp;P1;durP1;ratioP1;P2;durP2;ratioP2
51907;SDS011;39320;53.214;6.556;2022-10-17T00:01:21;0.35;;;0.30;;
51907;SDS011;39320;53.214;6.556;2022-10-17T00:03:47;0.50;;;0.38;;
51907;SDS011;39320;53.214;6.556;2022-10-17T00:06:13;0.45;;;0.43;;
51907;SDS011;39320;53.214;6.556;2022-10-17T00:08:40;0.50;;;0.50;;
51907;SDS011;39320;53.214;6.556;2022-10-17T00:11:08;0.43;;;0.40;;
51907;SDS011;39320;53.214;6.556;2022-10-17T00:13:39;0.75;;;0.43;;
51907;SDS011;39320;53.214;6.556;2022-10-17T00:16:05;0.40;;;0.40;;
51907;SDS011;39320;53.214;6.556;2022-10-17T00:18:31;0.60;;;0.40;;
51907;SDS011;39320;53.214;6.556;2022-10-17T00:20:57;0.55;;;0.40;;
51907;SDS011;39320;53.214;6.556;2022-10-17T00:23:22;0.60;;;0.40;;
51907;SDS011;39320;53.214;6.556;2022-10-17T00:25:58;0.73;;;0.70;;
51907;SDS011;39320;53.214;6.556;2022-10-17T00:28:28;0.50;;;0.50;;
51907;SDS011;39320;53.214;6.556;2022-10-17T00:30:55;0.50;;;0.50;;
51907;SDS011;39320;53.214;6.556;2022-10-17T00:33:25;0.50;;;0.50;;
51907;SDS011;39320;53.214;6.556;2022-10-17T00:36:02;0.40;;;0.40;;
51907;SDS011;39320;53.214;6.556;2022-10-17T00:38:32;0.55;;;0.55;;
51907;SDS011;39320;53.214;6.556;2022-10-17T00:40:58;0.40;;;0.40;;
51907;SDS011;39320;53.214;6.556;2022-10-17T00:43:24;0.75;;;0.50;;
51907;SDS011;39320;53.214;6.556;2022-10-17T00:45:50;0.40;;;0.40;;
51907;SDS011;39320;53.214;6.556;2022-10-17T00:48:16;0.30;;;0.30;;
51907;SDS011;39320;53.214;6.556;2022-10-17T00:50:43;0.32;;;0.32;;
51907;SDS011;39320;53.214;6.556;2022-10-17T00:53:12;0.60;;;0.55;;
51907;SDS011;39320;53.214;6.556;2022-10-17T00:55:48;1.05;;;0.40;;
51907;SDS011;39320;53.214;6.556;2022-10-17T00:58:16;0.40;;;0.40;;
51907;SDS011;39320;53.214;6.556;2022-10-17T01:00:44;0.40;;;0.40;;
51907;SDS011;39320;53.214;6.556;2022-10-17T01:03:12;0.38;;;0.38;;
51907;SDS011;39320;53.214;6.556;2022-10-17T01:05:38;0.50;;;0.50;;
51907;SDS011;39320;53.214;6.556;2022-10-17T01:08:06;0.55;;;0.55;;
51907;SDS011;39320;53.214;6.556;2022-10-17T01:10:34;0.35;;;0.30;;
51907;SDS011;39320;53.214;6.556;2022-10-17T01:13:24;0.40;;;0.40;;
51907;SDS011;39320;53.214;6.556;2022-10-17T01:16:04;0.40;;;0.30;;
51907;SDS011;39320;53.214;6.556;2022-10-17T01:32:35;0.30;;;0.30;;
51907;SDS011;39320;53.214;6.556;2022-10-17T01:40:21;0.38;;;0.38;;
51907;SDS011;39320;53.214;6.556;2022-10-17T01:43:58;0.20;;;0.20;;
51907;SDS011;39320;53.214;6.556;2022-10-17T01:45:53;0.50;;;0.40;;
51907;SDS011;39320;53.214;6.556;2022-10-17T01:48:25;0.70;;;0.30;;
51907;SDS011;39320;53.214;6.556;2022-10-17T01:54:01;0.20;;;0.20;;
51907;SDS011;39320;53.214;6.556;2022-10-17T01:56:47;0.30;;;0.30;;
51907;SDS011;39320;53.214;6.556;2022-10-17T01:59:21;0.40;;;0.30;;
51907;SDS011;39320;53.214;6.556;2022-10-17T02:01:51;0.40;;;0.40;;
51907;SDS011;39320;53.214;6.556;2022-10-17T02:04:22;0.30;;;0.30;;
51907;SDS011;39320;53.214;6.556;2022-10-17T02:06:50;0.30;;;0.30;;
51907;SDS011;39320;53.214;6.556;2022-10-17T02:09:23;0.38;;;0.30;;
51907;SDS011;39320;53.214;6.556;2022-10-17T02:14:49;0.70;;;0.30;;
51907;SDS011;39320;53.214;6.556;2022-10-17T02:22:51;0.30;;;0.30;;
51907;SDS011;39320;53.214;6.556;2022-10-17T02:25:37;0.35;;;0.30;;
51907;SDS011;39320;53.214;6.556;2022-10-17T02:31:00;0.30;;;0.30;;
51907;SDS011;39320;53.214;6.556;2022-10-17T02:33:51;0.40;;;0.30;;
51907;SDS011;39320;53.214;6.556;2022-10-17T02:36:23;0.20;;;0.20;;
51907;SDS011;39320;53.214;6.556;2022-10-17T02:38:53;0.30;;;0.30;;
51907;SDS011;39320;53.214;6.556;2022-10-17T02:41:19;0.28;;;0.28;;
51907;SDS011;39320;53.214;6.556;2022-10-17T02:43:47;0.30;;;0.30;;
51907;SDS011;39320;53.214;6.556;2022-10-17T02:46:15;0.95;;;0.30;;
51907;SDS011;39320;53.214;6.556;2022-10-17T02:48:57;0.30;;;0.30;;
51907;SDS011;39320;53.214;6.556;2022-10-17T02:51:28;0.30;;;0.30;;
51907;SDS011;39320;53.214;6.556;2022-10-17T02:56:35;0.35;;;0.30;;
51907;SDS011;39320;53.214;6.556;2022-10-17T02:59:06;0.43;;;0.20;;
51907;SDS011;39320;53.214;6.556;2022-10-17T03:01:34;0.30;;;0.30;;
51907;SDS011;39320;53.214;6.556;2022-10-17T03:04:07;0.20;;;0.20;;
51907;SDS011;39320;53.214;6.556;2022-10-17T03:06:38;0.20;;;0.20;;
51907;SDS011;39320;53.214;6.556;2022-10-17T03:09:05;0.30;;;0.30;;
51907;SDS011;39320;53.214;6.556;2022-10-17T03:11:31;0.30;;;0.30;;
51907;SDS011;39320;53.214;6.556;2022-10-17T03:13:57;0.30;;;0.30;;
51907;SDS011;39320;53.214;6.556;2022-10-17T03:16:23;0.28;;;0.28;;
51907;SDS011;39320;53.214;6.556;2022-10-17T03:18:49;0.20;;;0.20;;
51907;SDS011;39320;53.214;6.556;2022-10-17T03:21:14;0.30;;;0.30;;
51907;SDS011;39320;53.214;6.556;2022-10-17T03:23:40;0.20;;;0.20;;
51907;SDS011;39320;53.214;6.556;2022-10-17T03:26:06;0.30;;;0.30;;
51907;SDS011;39320;53.214;6.556;2022-10-17T03:28:32;0.20;;;0.20;;
51907;SDS011;39320;53.214;6.556;2022-10-17T03:30:59;0.22;;;0.22;;
51907;SDS011;39320;53.214;6.556;2022-10-17T03:33:31;0.40;;;0.40;;
51907;SDS011;39320;53.214;6.556;2022-10-17T03:35:57;0.30;;;0.30;;
51907;SDS011;39320;53.214;6.556;2022-10-17T03:38:22;0.30;;;0.30;;
51907;SDS011;39320;53.214;6.556;2022-10-17T03:40:54;0.30;;;0.30;;
51907;SDS011;39320;53.214;6.556;2022-10-17T03:43:20;0.32;;;0.32;;
51907;SDS011;39320;53.214;6.556;2022-10-17T03:45:46;0.32;;;0.32;;
51907;SDS011;39320;53.214;6.556;2022-10-17T03:48:12;0.63;;;0.40;;
51907;SDS011;39320;53.214;6.556;2022-10-17T03:50:37;0.30;;;0.30;;
51907;SDS011;39320;53.214;6.556;2022-10-17T03:53:03;0.30;;;0.30;;
51907;SDS011;39320;53.214;6.556;2022-10-17T03:55:29;0.20;;;0.20;;
51907;SDS011;39320;53.214;6.556;2022-10-17T03:57:54;0.32;;;0.30;;
51907;SDS011;39320;53.214;6.556;2022-10-17T04:00:20;0.40;;;0.28;;
51907;SDS011;39320;53.214;6.556;2022-10-17T04:02:46;0.30;;;0.30;;
51907;SDS011;39320;53.214;6.556;2022-10-17T04:05:12;0.20;;;0.20;;
51907;SDS011;39320;53.214;6.556;2022-10-17T04:07:37;0.20;;;0.20;;
51907;SDS011;39320;53.214;6.556;2022-10-17T04:10:03;0.30;;;0.30;;
51907;SDS011;39320;53.214;6.556;2022-10-17T04:12:29;0.40;;;0.40;;
51907;SDS011;39320;53.214;6.556;2022-10-17T04:14:55;0.20;;;0.20;;
51907;SDS011;39320;53.214;6.556;2022-10-17T04:17:21;0.30;;;0.30;;
51907;SDS011;39320;53.214;6.556;2022-10-17T04:19:48;0.20;;;0.20;;
51907;SDS011;39320;53.214;6.556;2022-10-17T04:22:13;0.30;;;0.30;;
51907;SDS011;39320;53.214;6.556;2022-10-17T04:24:39;0.30;;;0.30;;
51907;SDS011;39320;53.214;6.556;2022-10-17T04:27:05;0.20;;;0.20;;
51907;SDS011;39320;53.214;6.556;2022-10-17T04:29:31;0.30;;;0.30;;
51907;SDS011;39320;53.214;6.556;2022-10-17T04:31:56;0.30;;;0.30;;
51907;SDS011;39320;53.214;6.556;2022-10-17T04:34:22;0.20;;;0.20;;
51907;SDS011;39320;53.214;6.556;2022-10-17T04:36:48;0.40;;;0.30;;
51907;SDS011;39320;53.214;6.556;2022-10-17T04:39:15;0.25;;;0.25;;
51907;SDS011;39320;53.214;6.556;2022-10-17T04:41:41;0.30;;;0.30;;
51907;SDS011;39320;53.214;6.556;2022-10-17T04:44:08;0.32;;;0.30;;
51907;SDS011;39320;53.214;6.556;2022-10-17T04:46:35;0.30;;;0.30;;
51907;SDS011;39320;53.214;6.556;2022-10-17T04:49:00;0.30;;;0.30;;
51907;SDS011;39320;53.214;6.556;2022-10-17T04:51:26;0.30;;;0.30;;
51907;SDS011;39320;53.214;6.556;2022-10-17T04:53:52;0.30;;;0.30;;
51907;SDS011;39320;53.214;6.556;2022-10-17T04:56:19;0.20;;;0.20;;
51907;SDS011;39320;53.214;6.556;2022-10-17T04:58:45;0.20;;;0.20;;
51907;SDS011;39320;53.214;6.556;2022-10-17T05:01:13;0.25;;;0.25;;
51907;SDS011;39320;53.214;6.556;2022-10-17T05:03:40;0.20;;;0.20;;
51907;SDS011;39320;53.214;6.556;2022-10-17T05:06:07;0.45;;;0.45;;
51907;SDS011;39320;53.214;6.556;2022-10-17T05:08:35;0.40;;;0.40;;
51907;SDS011;39320;53.214;6.556;2022-10-17T05:11:01;0.25;;;0.25;;
51907;SDS011;39320;53.214;6.556;2022-10-17T05:13:27;0.32;;;0.32;;
51907;SDS011;39320;53.214;6.556;2022-10-17T05:15:57;0.20;;;0.20;;
51907;SDS011;39320;53.214;6.556;2022-10-17T05:18:26;0.30;;;0.30;;
51907;SDS011;39320;53.214;6.556;2022-10-17T05:20:53;0.30;;;0.30;;
51907;SDS011;39320;53.214;6.556;2022-10-17T05:23:18;0.28;;;0.28;;
51907;SDS011;39320;53.214;6.556;2022-10-17T05:25:44;0.30;;;0.30;;
51907;SDS011;39320;53.214;6.556;2022-10-17T05:28:10;0.30;;;0.30;;
51907;SDS011;39320;53.214;6.556;2022-10-17T05:30:36;0.40;;;0.40;;
51907;SDS011;39320;53.214;6.556;2022-10-17T05:33:02;0.30;;;0.30;;
51907;SDS011;39320;53.214;6.556;2022-10-17T05:35:27;0.30;;;0.30;;
51907;SDS011;39320;53.214;6.556;2022-10-17T05:37:53;0.30;;;0.30;;
51907;SDS011;39320;53.214;6.556;2022-10-17T05:40:19;0.30;;;0.30;;
51907;SDS011;39320;53.214;6.556;2022-10-17T05:42:45;0.32;;;0.32;;
51907;SDS011;39320;53.214;6.556;2022-10-17T05:45:12;0.30;;;0.30;;
51907;SDS011;39320;53.214;6.556;2022-10-17T05:47:38;0.30;;;0.30;;
51907;SDS011;39320;53.214;6.556;2022-10-17T05:50:04;0.30;;;0.30;;
51907;SDS011;39320;53.214;6.556;2022-10-17T05:52:31;0.30;;;0.30;;
51907;SDS011;39320;53.214;6.556;2022-10-17T05:54:56;0.40;;;0.40;;
51907;SDS011;39320;53.214;6.556;2022-10-17T05:57:25;0.32;;;0.32;;
51907;SDS011;39320;53.214;6.556;2022-10-17T05:59:51;0.30;;;0.30;;
51907;SDS011;39320;53.214;6.556;2022-10-17T06:02:17;0.40;;;0.40;;
51907;SDS011;39320;53.214;6.556;2022-10-17T06:04:42;0.32;;;0.32;;
51907;SDS011;39320;53.214;6.556;2022-10-17T06:07:12;0.38;;;0.38;;
51907;SDS011;39320;53.214;6.556;2022-10-17T06:09:39;0.50;;;0.50;;
51907;SDS011;39320;53.214;6.556;2022-10-17T06:12:05;0.30;;;0.30;;
51907;SDS011;39320;53.214;6.556;2022-10-17T06:14:31;0.47;;;0.47;;
51907;SDS011;39320;53.214;6.556;2022-10-17T06:16:57;0.30;;;0.30;;
51907;SDS011;39320;53.214;6.556;2022-10-17T06:19:23;0.30;;;0.30;;
51907;SDS011;39320;53.214;6.556;2022-10-17T06:21:49;0.40;;;0.40;;
51907;SDS011;39320;53.214;6.556;2022-10-17T06:24:14;0.40;;;0.30;;
51907;SDS011;39320;53.214;6.556;2022-10-17T06:26:40;0.40;;;0.40;;
51907;SDS011;39320;53.214;6.556;2022-10-17T06:29:06;0.40;;;0.40;;
51907;SDS011;39320;53.214;6.556;2022-10-17T06:31:32;0.40;;;0.40;;
51907;SDS011;39320;53.214;6.556;2022-10-17T06:33:58;0.40;;;0.40;;
51907;SDS011;39320;53.214;6.556;2022-10-17T06:36:23;0.32;;;0.32;;
51907;SDS011;39320;53.214;6.556;2022-10-17T06:38:49;0.30;;;0.30;;
51907;SDS011;39320;53.214;6.556;2022-10-17T06:41:15;0.30;;;0.30;;
51907;SDS011;39320;53.214;6.556;2022-10-17T06:43:43;0.30;;;0.30;;
51907;SDS011;39320;53.214;6.556;2022-10-17T06:46:10;0.30;;;0.30;;
51907;SDS011;39320;53.214;6.556;2022-10-17T06:48:37;0.30;;;0.30;;
51907;SDS011;39320;53.214;6.556;2022-10-17T06:51:03;0.40;;;0.40;;
51907;SDS011;39320;53.214;6.556;2022-10-17T06:53:31;0.40;;;0.40;;
51907;SDS011;39320;53.214;6.556;2022-10-17T06:55:58;0.30;;;0.30;;
51907;SDS011;39320;53.214;6.556;2022-10-17T06:58:28;0.40;;;0.40;;
51907;SDS011;39320;53.214;6.556;2022-10-17T07:00:58;0.35;;;0.35;;
51907;SDS011;39320;53.214;6.556;2022-10-17T07:03:25;0.40;;;0.40;;
51907;SDS011;39320;53.214;6.556;2022-10-17T07:05:52;0.30;;;0.30;;
51907;SDS011;39320;53.214;6.556;2022-10-17T07:08:19;0.40;;;0.40;;
51907;SDS011;39320;53.214;6.556;2022-10-17T07:10:45;0.52;;;0.52;;
51907;SDS011;39320;53.214;6.556;2022-10-17T07:13:11;0.30;;;0.30;;
51907;SDS011;39320;53.214;6.556;2022-10-17T07:15:37;0.52;;;0.40;;
51907;SDS011;39320;53.214;6.556;2022-10-17T07:18:03;0.30;;;0.30;;
51907;SDS011;39320;53.214;6.556;2022-10-17T07:20:29;0.40;;;0.40;;
51907;SDS011;39320;53.214;6.556;2022-10-17T07:22:55;0.40;;;0.40;;
51907;SDS011;39320;53.214;6.556;2022-10-17T07:25:21;0.40;;;0.40;;
51907;SDS011;39320;53.214;6.556;2022-10-17T07:27:47;0.40;;;0.40;;
51907;SDS011;39320;53.214;6.556;2022-10-17T07:30:14;0.40;;;0.40;;
51907;SDS011;39320;53.214;6.556;2022-10-17T07:32:41;0.45;;;0.45;;
51907;SDS011;39320;53.214;6.556;2022-10-17T07:35:07;0.30;;;0.30;;
51907;SDS011;39320;53.214;6.556;2022-10-17T07:37:34;0.35;;;0.35;;
51907;SDS011;39320;53.214;6.556;2022-10-17T07:40:00;0.40;;;0.40;;
51907;SDS011;39320;53.214;6.556;2022-10-17T07:42:26;0.30;;;0.30;;
51907;SDS011;39320;53.214;6.556;2022-10-17T07:44:52;0.30;;;0.30;;
51907;SDS011;39320;53.214;6.556;2022-10-17T07:47:19;0.40;;;0.40;;
51907;SDS011;39320;53.214;6.556;2022-10-17T07:49:45;0.45;;;0.45;;
51907;SDS011;39320;53.214;6.556;2022-10-17T07:52:11;0.32;;;0.32;;
51907;SDS011;39320;53.214;6.556;2022-10-17T07:54:37;0.30;;;0.30;;
51907;SDS011;39320;53.214;6.556;2022-10-17T07:57:03;0.40;;;0.40;;
51907;SDS011;39320;53.214;6.556;2022-10-17T07:59:29;0.32;;;0.32;;
51907;SDS011;39320;53.214;6.556;2022-10-17T08:01:56;0.30;;;0.30;;
51907;SDS011;39320;53.214;6.556;2022-10-17T08:04:23;0.50;;;0.40;;
51907;SDS011;39320;53.214;6.556;2022-10-17T08:06:49;0.20;;;0.20;;
51907;SDS011;39320;53.214;6.556;2022-10-17T08:09:16;0.30;;;0.30;;
51907;SDS011;39320;53.214;6.556;2022-10-17T08:11:41;0.32;;;0.25;;
51907;SDS011;39320;53.214;6.556;2022-10-17T08:14:08;0.30;;;0.30;;
51907;SDS011;39320;53.214;6.556;2022-10-17T08:16:35;0.40;;;0.40;;
51907;SDS011;39320;53.214;6.556;2022-10-17T08:19:01;0.30;;;0.30;;
51907;SDS011;39320;53.214;6.556;2022-10-17T08:21:27;0.35;;;0.35;;
51907;SDS011;39320;53.214;6.556;2022-10-17T08:23:53;0.30;;;0.30;;
51907;SDS011;39320;53.214;6.556;2022-10-17T08:26:18;0.30;;;0.30;;
51907;SDS011;39320;53.214;6.556;2022-10-17T08:28:44;0.32;;;0.32;;
51907;SDS011;39320;53.214;6.556;2022-10-17T08:31:12;0.30;;;0.30;;
51907;SDS011;39320;53.214;6.556;2022-10-17T08:33:45;0.30;;;0.30;;
51907;SDS011;39320;53.214;6.556;2022-10-17T08:36:12;0.25;;;0.25;;
51907;SDS011;39320;53.214;6.556;2022-10-17T08:38:40;0.30;;;0.30;;
51907;SDS011;39320;53.214;6.556;2022-10-17T08:41:14;0.30;;;0.30;;
51907;SDS011;39320;53.214;6.556;2022-10-17T08:46:33;0.30;;;0.30;;
51907;SDS011;39320;53.214;6.556;2022-10-17T08:49:02;0.30;;;0.30;;
51907;SDS011;39320;53.214;6.556;2022-10-17T08:51:35;0.30;;;0.30;;
51907;SDS011;39320;53.214;6.556;2022-10-17T08:56:45;0.38;;;0.38;;
51907;SDS011;39320;53.214;6.556;2022-10-17T08:59:17;0.30;;;0.30;;
51907;SDS011;39320;53.214;6.556;2022-10-17T09:01:49;0.28;;;0.28;;
51907;SDS011;39320;53.214;6.556;2022-10-17T09:18:02;0.30;;;0.30;;
51907;SDS011;39320;53.214;6.556;2022-10-17T09:20:46;0.30;;;0.30;;
51907;SDS011;39320;53.214;6.556;2022-10-17T09:23:29;0.22;;;0.22;;
51907;SDS011;39320;53.214;6.556;2022-10-17T09:26:00;0.30;;;0.30;;
51907;SDS011;39320;53.214;6.556;2022-10-17T09:28:33;0.28;;;0.28;;
51907;SDS011;39320;53.214;6.556;2022-10-17T09:31:02;0.20;;;0.20;;
51907;SDS011;39320;53.214;6.556;2022-10-17T09:33:44;0.52;;;0.40;;
51907;SDS011;39320;53.214;6.556;2022-10-17T09:36:13;0.30;;;0.30;;
51907;SDS011;39320;53.214;6.556;2022-10-17T09:38:55;0.30;;;0.20;;
51907;SDS011;39320;53.214;6.556;2022-10-17T09:41:23;0.30;;;0.30;;
51907;SDS011;39320;53.214;6.556;2022-10-17T09:49:35;0.22;;;0.20;;
51907;SDS011;39320;53.214;6.556;2022-10-17T09:52:03;0.20;;;0.20;;
51907;SDS011;39320;53.214;6.556;2022-10-17T09:54:51;0.30;;;0.30;;
51907;SDS011;39320;53.214;6.556;2022-10-17T10:00:00;0.20;;;0.20;;
51907;SDS011;39320;53.214;6.556;2022-10-17T10:02:29;0.20;;;0.20;;
51907;SDS011;39320;53.214;6.556;2022-10-17T10:05:39;0.40;;;0.30;;
51907;SDS011;39320;53.214;6.556;2022-10-17T10:08:03;0.20;;;0.20;;
51907;SDS011;39320;53.214;6.556;2022-10-17T10:10:36;0.47;;;0.47;;
51907;SDS011;39320;53.214;6.556;2022-10-17T10:15:39;0.65;;;0.20;;
51907;SDS011;39320;53.214;6.556;2022-10-17T10:23:34;0.40;;;0.40;;
51907;SDS011;39320;53.214;6.556;2022-10-17T10:26:10;0.30;;;0.30;;
51907;SDS011;39320;53.214;6.556;2022-10-17T10:28:59;0.30;;;0.30;;
51907;SDS011;39320;53.214;6.556;2022-10-17T10:31:31;0.40;;;0.40;;
51907;SDS011;39320;53.214;6.556;2022-10-17T10:34:10;0.40;;;0.40;;
51907;SDS011;39320;53.214;6.556;2022-10-17T10:36:47;0.22;;;0.22;;
51907;SDS011;39320;53.214;6.556;2022-10-17T10:39:41;0.30;;;0.30;;
51907;SDS011;39320;53.214;6.556;2022-10-17T10:42:23;0.30;;;0.30;;
51907;SDS011;39320;53.214;6.556;2022-10-17T10:45:16;0.30;;;0.30;;
51907;SDS011;39320;53.214;6.556;2022-10-17T10:51:09;0.30;;;0.30;;
51907;SDS011;39320;53.214;6.556;2022-10-17T10:56:47;0.30;;;0.30;;
51907;SDS011;39320;53.214;6.556;2022-10-17T10:59:16;0.30;;;0.30;;
51907;SDS011;39320;53.214;6.556;2022-10-17T11:07:20;0.40;;;0.40;;
51907;SDS011;39320;53.214;6.556;2022-10-17T11:12:56;0.38;;;0.30;;
51907;SDS011;39320;53.214;6.556;2022-10-17T11:15:52;0.30;;;0.30;;
51907;SDS011;39320;53.214;6.556;2022-10-17T11:18:25;0.30;;;0.30;;
51907;SDS011;39320;53.214;6.556;2022-10-17T11:20:55;0.30;;;0.30;;
51907;SDS011;39320;53.214;6.556;2022-10-17T11:26:31;0.20;;;0.20;;
51907;SDS011;39320;53.214;6.556;2022-10-17T11:29:02;0.35;;;0.35;;
51907;SDS011;39320;53.214;6.556;2022-10-17T11:31:33;0.60;;;0.35;;
51907;SDS011;39320;53.214;6.556;2022-10-17T11:36:48;0.35;;;0.35;;
51907;SDS011;39320;53.214;6.556;2022-10-17T11:39:17;0.47;;;0.45;;
51907;SDS011;39320;53.214;6.556;2022-10-17T11:41:49;0.30;;;0.30;;
51907;SDS011;39320;53.214;6.556;2022-10-17T11:47:06;0.50;;;0.50;;
51907;SDS011;39320;53.214;6.556;2022-10-17T11:49:46;0.40;;;0.40;;
51907;SDS011;39320;53.214;6.556;2022-10-17T11:54:47;0.38;;;0.38;;
51907;SDS011;39320;53.214;6.556;2022-10-17T11:57:36;0.30;;;0.30;;
51907;SDS011;39320;53.214;6.556;2022-10-17T12:05:47;0.22;;;0.22;;
51907;SDS011;39320;53.214;6.556;2022-10-17T12:11:33;0.28;;;0.28;;
51907;SDS011;39320;53.214;6.556;2022-10-17T12:14:34;0.20;;;0.20;;
51907;SDS011;39320;53.214;6.556;2022-10-17T12:22:50;0.30;;;0.30;;
51907;SDS011;39320;53.214;6.556;2022-10-17T12:25:23;0.30;;;0.30;;
51907;SDS011;39320;53.214;6.556;2022-10-17T12:27:50;0.20;;;0.20;;
51907;SDS011;39320;53.214;6.556;2022-10-17T12:31:00;0.20;;;0.20;;
51907;SDS011;39320;53.214;6.556;2022-10-17T12:38:46;0.17;;;0.17;;
51907;SDS011;39320;53.214;6.556;2022-10-17T12:41:51;0.35;;;0.30;;
51907;SDS011;39320;53.214;6.556;2022-10-17T12:44:06;0.20;;;0.20;;
51907;SDS011;39320;53.214;6.556;2022-10-17T12:49:21;0.20;;;0.20;;
51907;SDS011;39320;53.214;6.556;2022-10-17T12:54:57;0.20;;;0.20;;
51907;SDS011;39320;53.214;6.556;2022-10-17T13:00:00;0.28;;;0.28;;
51907;SDS011;39320;53.214;6.556;2022-10-17T13:02:38;0.20;;;0.20;;
51907;SDS011;39320;53.214;6.556;2022-10-17T13:05:16;0.10;;;0.10;;
51907;SDS011;39320;53.214;6.556;2022-10-17T13:07:48;0.20;;;0.20;;
51907;SDS011;39320;53.214;6.556;2022-10-17T13:10:20;0.20;;;0.20;;
51907;SDS011;39320;53.214;6.556;2022-10-17T13:12:48;0.20;;;0.20;;
51907;SDS011;39320;53.214;6.556;2022-10-17T13:15:18;0.10;;;0.10;;
51907;SDS011;39320;53.214;6.556;2022-10-17T13:17:45;0.20;;;0.20;;
51907;SDS011;39320;53.214;6.556;2022-10-17T13:20:21;0.15;;;0.15;;
51907;SDS011;39320;53.214;6.556;2022-10-17T13:22:49;0.20;;;0.20;;
51907;SDS011;39320;53.214;6.556;2022-10-17T13:25:17;0.20;;;0.20;;
51907;SDS011;39320;53.214;6.556;2022-10-17T13:27:44;0.25;;;0.20;;
51907;SDS011;39320;53.214;6.556;2022-10-17T13:32:53;0.20;;;0.17;;
51907;SDS011;39320;53.214;6.556;2022-10-17T13:35:30;0.20;;;0.20;;
51907;SDS011;39320;53.214;6.556;2022-10-17T13:37:59;0.20;;;0.20;;
51907;SDS011;39320;53.214;6.556;2022-10-17T13:40:28;0.28;;;0.28;;
51907;SDS011;39320;53.214;6.556;2022-10-17T13:42:56;0.43;;;0.30;;
51907;SDS011;39320;53.214;6.556;2022-10-17T13:45:28;0.20;;;0.20;;
51907;SDS011;39320;53.214;6.556;2022-10-17T13:48:00;0.28;;;0.20;;
51907;SDS011;39320;53.214;6.556;2022-10-17T13:50:32;0.20;;;0.20;;
51907;SDS011;39320;53.214;6.556;2022-10-17T13:53:07;0.20;;;0.20;;
51907;SDS011;39320;53.214;6.556;2022-10-17T13:56:03;0.10;;;0.10;;
51907;SDS011;39320;53.214;6.556;2022-10-17T13:58:33;0.20;;;0.20;;
51907;SDS011;39320;53.214;6.556;2022-10-17T14:01:11;0.20;;;0.20;;
51907;SDS011;39320;53.214;6.556;2022-10-17T14:03:41;0.20;;;0.20;;
51907;SDS011;39320;53.214;6.556;2022-10-17T14:06:13;0.15;;;0.15;;
51907;SDS011;39320;53.214;6.556;2022-10-17T14:08:51;0.20;;;0.20;;
51907;SDS011;39320;53.214;6.556;2022-10-17T14:11:23;0.20;;;0.20;;
51907;SDS011;39320;53.214;6.556;2022-10-17T14:13:53;0.20;;;0.20;;
51907;SDS011;39320;53.214;6.556;2022-10-17T14:16:21;0.20;;;0.20;;
51907;SDS011;39320;53.214;6.556;2022-10-17T14:18:49;0.25;;;0.25;;
51907;SDS011;39320;53.214;6.556;2022-10-17T14:21:20;0.17;;;0.17;;
51907;SDS011;39320;53.214;6.556;2022-10-17T14:23:49;0.10;;;0.10;;
51907;SDS011;39320;53.214;6.556;2022-10-17T14:26:34;0.35;;;0.13;;
51907;SDS011;39320;53.214;6.556;2022-10-17T14:29:20;0.43;;;0.20;;
51907;SDS011;39320;53.214;6.556;2022-10-17T14:32:01;0.25;;;0.20;;
51907;SDS011;39320;53.214;6.556;2022-10-17T14:34:31;0.20;;;0.20;;
51907;SDS011;39320;53.214;6.556;2022-10-17T14:36:59;0.20;;;0.20;;
51907;SDS011;39320;53.214;6.556;2022-10-17T14:39:26;0.15;;;0.15;;
51907;SDS011;39320;53.214;6.556;2022-10-17T14:41:53;0.20;;;0.20;;
51907;SDS011;39320;53.214;6.556;2022-10-17T14:44:20;0.20;;;0.20;;
51907;SDS011;39320;53.214;6.556;2022-10-17T14:46:55;0.20;;;0.20;;
51907;SDS011;39320;53.214;6.556;2022-10-17T14:54:39;0.30;;;0.20;;
51907;SDS011;39320;53.214;6.556;2022-10-17T14:57:25;0.20;;;0.20;;
51907;SDS011;39320;53.214;6.556;2022-10-17T14:59:52;0.20;;;0.20;;
51907;SDS011;39320;53.214;6.556;2022-10-17T15:02:19;0.10;;;0.10;;
51907;SDS011;39320;53.214;6.556;2022-10-17T15:04:45;0.25;;;0.20;;
51907;SDS011;39320;53.214;6.556;2022-10-17T15:07:12;0.20;;;0.20;;
51907;SDS011;39320;53.214;6.556;2022-10-17T15:09:39;0.20;;;0.20;;
51907;SDS011;39320;53.214;6.556;2022-10-17T15:12:09;0.20;;;0.20;;
51907;SDS011;39320;53.214;6.556;2022-10-17T15:14:38;0.17;;;0.17;;
51907;SDS011;39320;53.214;6.556;2022-10-17T15:17:09;0.20;;;0.20;;
51907;SDS011;39320;53.214;6.556;2022-10-17T15:19:38;0.20;;;0.20;;
51907;SDS011;39320;53.214;6.556;2022-10-17T15:22:04;0.20;;;0.20;;
51907;SDS011;39320;53.214;6.556;2022-10-17T15:24:30;0.10;;;0.10;;
51907;SDS011;39320;53.214;6.556;2022-10-17T15:26:56;0.20;;;0.20;;
51907;SDS011;39320;53.214;6.556;2022-10-17T15:29:21;0.20;;;0.20;;
51907;SDS011;39320;53.214;6.556;2022-10-17T15:31:47;0.10;;;0.10;;
51907;SDS011;39320;53.214;6.556;2022-10-17T15:34:13;0.10;;;0.10;;
51907;SDS011;39320;53.214;6.556;2022-10-17T15:36:39;0.20;;;0.20;;
51907;SDS011;39320;53.214;6.556;2022-10-17T15:39:05;0.30;;;0.20;;
51907;SDS011;39320;53.214;6.556;2022-10-17T15:41:32;0.30;;;0.30;;
51907;SDS011;39320;53.214;6.556;2022-10-17T15:43:58;0.17;;;0.17;;
51907;SDS011;39320;53.214;6.556;2022-10-17T15:46:25;0.20;;;0.20;;
51907;SDS011;39320;53.214;6.556;2022-10-17T15:48:52;0.20;;;0.20;;
51907;SDS011;39320;53.214;6.556;2022-10-17T15:51:19;0.20;;;0.20;;
51907;SDS011;39320;53.214;6.556;2022-10-17T15:53:45;0.20;;;0.20;;
51907;SDS011;39320;53.214;6.556;2022-10-17T15:59:03;0.20;;;0.20;;
51907;SDS011;39320;53.214;6.556;2022-10-17T16:01:31;0.20;;;0.20;;
51907;SDS011;39320;53.214;6.556;2022-10-17T16:03:58;0.20;;;0.20;;
51907;SDS011;39320;53.214;6.556;2022-10-17T16:06:24;0.20;;;0.20;;
51907;SDS011;39320;53.214;6.556;2022-10-17T16:08:50;0.10;;;0.10;;
51907;SDS011;39320;53.214;6.556;2022-10-17T16:13:51;0.20;;;0.20;;
51907;SDS011;39320;53.214;6.556;2022-10-17T16:16:19;0.20;;;0.20;;
51907;SDS011;39320;53.214;6.556;2022-10-17T16:18:46;0.20;;;0.20;;
51907;SDS011;39320;53.214;6.556;2022-10-17T16:21:13;0.10;;;0.10;;
51907;SDS011;39320;53.214;6.556;2022-10-17T16:23:40;0.20;;;0.20;;
51907;SDS011;39320;53.214;6.556;2022-10-17T16:26:06;0.20;;;0.20;;
51907;SDS011;39320;53.214;6.556;2022-10-17T16:28:33;0.20;;;0.20;;
51907;SDS011;39320;53.214;6.556;2022-10-17T16:30:59;0.20;;;0.20;;
51907;SDS011;39320;53.214;6.556;2022-10-17T16:33:26;0.22;;;0.22;;
51907;SDS011;39320;53.214;6.556;2022-10-17T16:35:51;0.10;;;0.10;;
51907;SDS011;39320;53.214;6.556;2022-10-17T16:38:17;0.20;;;0.20;;
51907;SDS011;39320;53.214;6.556;2022-10-17T16:40:43;0.20;;;0.20;;
51907;SDS011;39320;53.214;6.556;2022-10-17T16:43:11;0.20;;;0.20;;
51907;SDS011;39320;53.214;6.556;2022-10-17T16:45:38;0.20;;;0.20;;
51907;SDS011;39320;53.214;6.556;2022-10-17T16:48:04;0.20;;;0.20;;
51907;SDS011;39320;53.214;6.556;2022-10-17T16:50:29;0.20;;;0.20;;
51907;SDS011;39320;53.214;6.556;2022-10-17T16:52:59;0.20;;;0.20;;
51907;SDS011;39320;53.214;6.556;2022-10-17T16:55:25;0.20;;;0.20;;
51907;SDS011;39320;53.214;6.556;2022-10-17T16:57:51;0.20;;;0.20;;
51907;SDS011;39320;53.214;6.556;2022-10-17T17:00:17;0.22;;;0.22;;
51907;SDS011;39320;53.214;6.556;2022-10-17T17:02:43;0.15;;;0.15;;
51907;SDS011;39320;53.214;6.556;2022-10-17T17:05:11;0.38;;;0.28;;
51907;SDS011;39320;53.214;6.556;2022-10-17T17:07:36;0.20;;;0.20;;
51907;SDS011;39320;53.214;6.556;2022-10-17T17:10:02;0.30;;;0.30;;
51907;SDS011;39320;53.214;6.556;2022-10-17T17:12:30;0.22;;;0.22;;
51907;SDS011;39320;53.214;6.556;2022-10-17T17:14:57;0.20;;;0.20;;
51907;SDS011;39320;53.214;6.556;2022-10-17T17:17:22;0.20;;;0.20;;
51907;SDS011;39320;53.214;6.556;2022-10-17T17:19:48;0.20;;;0.20;;
51907;SDS011;39320;53.214;6.556;2022-10-17T17:22:14;0.10;;;0.10;;